createdAt,value
2023-02-04T00:03:24.082Z,0.40
2023-02-04T00:07:25.507Z,0.30
2023-02-04T00:11:27.105Z,0.20
2023-02-04T00:15:28.715Z,0.28
2023-02-04T00:19:30.138Z,0.30
2023-02-04T00:23:31.721Z,0.30
2023-02-04T00:27:33.215Z,0.38
2023-02-04T00:31:35.401Z,0.40
2023-02-04T00:35:39.638Z,0.40
2023-02-04T00:39:41.161Z,0.20
2023-02-04T00:43:42.566Z,0.20
2023-02-04T00:47:44.043Z,0.30
2023-02-04T00:51:46.620Z,0.28
2023-02-04T00:55:48.225Z,0.20
2023-02-04T00:59:49.738Z,0.45
2023-02-04T01:03:52.061Z,0.40
2023-02-04T01:07:53.631Z,0.30
2023-02-04T01:11:55.166Z,0.22
2023-02-04T01:15:56.639Z,0.32
2023-02-04T01:19:58.079Z,0.50
2023-02-04T01:24:00.222Z,0.30
2023-02-04T01:28:02.015Z,0.30
2023-02-04T01:32:05.684Z,0.30
2023-02-04T01:36:07.591Z,0.40
2023-02-04T01:40:11.331Z,0.40
2023-02-04T01:44:12.995Z,0.20
2023-02-04T01:48:20.275Z,0.35
2023-02-04T01:52:22.882Z,0.35
2023-02-04T01:56:27.022Z,0.30
2023-02-04T02:00:33.547Z,0.30
2023-02-04T02:04:35.195Z,0.20
2023-02-04T02:08:37.679Z,0.40
2023-02-04T02:12:40.922Z,0.30
2023-02-04T02:16:43.415Z,0.40
2023-02-04T02:20:46.942Z,0.30
2023-02-04T02:24:48.439Z,0.30
2023-02-04T02:28:50.808Z,0.40
2023-02-04T02:32:52.820Z,0.35
2023-02-04T02:36:55.491Z,0.30
2023-02-04T02:40:59.012Z,0.25
2023-02-04T02:45:04.799Z,0.30
2023-02-04T02:49:06.823Z,0.30
2023-02-04T02:53:14.072Z,0.30
2023-02-04T02:57:21.327Z,0.20
2023-02-04T03:01:23.261Z,0.43
2023-02-04T03:05:26.595Z,0.30
2023-02-04T03:09:29.396Z,0.20
2023-02-04T03:13:31.071Z,0.20
2023-02-04T03:17:32.605Z,0.20
2023-02-04T03:21:35.464Z,0.28
2023-02-04T03:25:39.370Z,0.38
2023-02-04T03:29:46.158Z,0.20
2023-02-04T03:33:48.141Z,0.20
2023-02-04T03:37:49.623Z,0.20
2023-02-04T03:41:51.291Z,0.30
2023-02-04T03:45:52.896Z,0.30
2023-02-04T03:49:54.296Z,0.30
2023-02-04T03:53:55.703Z,0.20
2023-02-04T03:57:58.613Z,0.35
2023-02-04T04:02:02.398Z,0.30
2023-02-04T04:06:06.384Z,0.22
2023-02-04T04:10:08.733Z,0.20
2023-02-04T04:14:10.301Z,0.30
2023-02-04T04:18:11.782Z,0.20
2023-02-04T04:22:13.274Z,0.28
2023-02-04T04:26:15.632Z,0.40
2023-02-04T04:30:18.242Z,0.40
2023-02-04T04:34:19.791Z,0.25
2023-02-04T04:38:21.277Z,0.30
2023-02-04T04:42:22.818Z,0.25
2023-02-04T04:46:24.284Z,0.20
2023-02-04T04:50:32.193Z,0.20
2023-02-04T04:54:34.645Z,0.28
2023-02-04T04:58:36.422Z,0.20
2023-02-04T05:02:37.857Z,0.20
2023-02-04T05:06:39.300Z,0.25
2023-02-04T05:10:41.149Z,0.30
2023-02-04T05:14:42.559Z,0.20
2023-02-04T05:18:44.149Z,0.40
2023-02-04T05:22:45.577Z,0.20
2023-02-04T05:26:47.023Z,0.40
2023-02-04T05:30:49.025Z,0.20
2023-02-04T05:34:50.467Z,0.35
2023-02-04T05:38:51.893Z,0.20
2023-02-04T05:42:53.433Z,0.28
2023-02-04T05:46:54.880Z,0.30
2023-02-04T05:50:56.341Z,0.20
2023-02-04T05:54:58.868Z,0.22
2023-02-04T05:59:01.156Z,0.25
2023-02-04T06:03:02.628Z,0.25
2023-02-04T06:07:04.129Z,0.40
2023-02-04T06:11:05.774Z,0.20
2023-02-04T06:15:07.646Z,0.20
2023-02-04T06:19:10.188Z,0.20
2023-02-04T06:23:12.255Z,0.30
2023-02-04T06:27:13.744Z,0.30
2023-02-04T06:31:15.295Z,0.20
2023-02-04T06:35:16.795Z,0.30
2023-02-04T06:39:18.272Z,0.20
2023-02-04T06:43:20.319Z,0.20
2023-02-04T06:47:22.161Z,0.30
2023-02-04T06:51:23.584Z,0.20
2023-02-04T06:55:24.997Z,0.20
2023-02-04T06:59:32.347Z,0.38
2023-02-04T07:03:33.782Z,0.40
2023-02-04T07:07:35.281Z,0.30
2023-02-04T07:11:36.756Z,0.20
2023-02-04T07:15:38.307Z,0.47
2023-02-04T07:19:39.755Z,0.52
2023-02-04T07:23:41.173Z,1.73
2023-02-04T07:27:42.669Z,1.67
2023-02-04T07:31:45.379Z,0.43
2023-02-04T07:35:47.025Z,0.43
2023-02-04T07:39:49.638Z,0.30
2023-02-04T07:44:00.740Z,0.30
2023-02-04T07:48:04.950Z,0.40
2023-02-04T07:52:07.382Z,0.20
2023-02-04T07:56:12.374Z,0.52
2023-02-04T08:00:16.215Z,0.20
2023-02-04T08:04:17.658Z,0.30
2023-02-04T08:08:19.230Z,0.75
2023-02-04T08:12:20.672Z,0.30
2023-02-04T08:16:22.264Z,0.35
2023-02-04T08:20:24.136Z,0.32
2023-02-04T08:24:25.588Z,0.30
2023-02-04T08:28:27.024Z,0.20
2023-02-04T08:32:29.258Z,0.20
2023-02-04T08:36:31.031Z,0.30
2023-02-04T08:40:32.753Z,0.20
2023-02-04T08:44:34.425Z,0.20
2023-02-04T08:48:35.882Z,0.30
2023-02-04T08:52:48.944Z,0.30
2023-02-04T08:57:06.646Z,0.25
2023-02-04T09:01:11.270Z,0.30
2023-02-04T09:05:13.153Z,0.50
2023-02-04T09:09:15.134Z,0.20
2023-02-04T09:13:17.118Z,0.40
2023-02-04T09:17:19.077Z,0.30
2023-02-04T09:21:20.717Z,0.20
2023-02-04T09:25:22.138Z,0.20
2023-02-04T09:29:23.587Z,0.40
2023-02-04T09:33:25.032Z,0.20
2023-02-04T09:37:27.025Z,0.30
2023-02-04T09:41:28.491Z,0.30
2023-02-04T09:45:36.942Z,0.20
2023-02-04T09:49:39.150Z,0.32
2023-02-04T09:53:40.716Z,0.20
2023-02-04T09:57:43.269Z,0.30
2023-02-04T10:01:47.635Z,0.30
2023-02-04T10:05:50.264Z,0.20
2023-02-04T10:09:54.326Z,0.25
2023-02-04T10:13:56.784Z,0.30
2023-02-04T10:18:03.402Z,0.30
2023-02-04T10:22:17.503Z,0.30
2023-02-04T10:26:22.162Z,0.22
2023-02-04T10:30:43.630Z,0.28
2023-02-04T10:34:45.113Z,0.32
2023-02-04T10:38:59.672Z,0.30
2023-02-04T10:43:22.907Z,0.30
2023-02-04T10:47:27.199Z,0.40
2023-02-04T10:51:28.866Z,0.30
2023-02-04T10:55:30.329Z,0.32
2023-02-04T10:59:32.036Z,0.30
2023-02-04T11:03:33.503Z,0.20
2023-02-04T11:07:34.973Z,0.40
2023-02-04T11:11:36.812Z,0.20
2023-02-04T11:15:49.970Z,0.30
2023-02-04T11:19:51.907Z,0.57
2023-02-04T11:24:11.722Z,0.20
2023-02-04T11:28:15.246Z,0.20
2023-02-04T11:32:36.032Z,0.43
2023-02-04T11:37:01.650Z,0.40
2023-02-04T11:41:10.196Z,0.35
2023-02-04T11:45:31.227Z,0.35
2023-02-04T11:50:21.118Z,0.30
2023-02-04T11:54:23.592Z,0.30
2023-02-04T11:58:28.660Z,0.30
2023-02-04T12:02:49.954Z,0.30
2023-02-04T12:07:03.396Z,0.30
2023-02-04T12:11:12.169Z,0.40
2023-02-04T12:15:24.047Z,0.20
2023-02-04T12:19:27.671Z,0.30
2023-02-04T12:23:30.051Z,0.30
2023-02-04T12:27:31.689Z,0.30
2023-02-04T12:31:33.817Z,0.40
2023-02-04T12:35:35.457Z,0.30
2023-02-04T12:39:37.116Z,0.25
2023-02-04T12:43:38.681Z,0.40
2023-02-04T12:47:40.187Z,0.20
2023-02-04T12:51:41.697Z,0.80
2023-02-04T12:55:43.187Z,0.30
2023-02-04T12:59:44.657Z,0.32
2023-02-04T13:03:46.161Z,0.20
2023-02-04T13:07:47.676Z,0.32
2023-02-04T13:11:49.224Z,0.30
2023-02-04T13:15:50.862Z,0.30
2023-02-04T13:19:52.693Z,0.30
2023-02-04T13:23:54.633Z,0.30
2023-02-04T13:27:56.343Z,0.35
2023-02-04T13:31:57.995Z,0.63
2023-02-04T13:35:59.717Z,0.38
2023-02-04T13:40:01.185Z,0.38
2023-02-04T13:44:05.114Z,0.30
2023-02-04T13:48:06.595Z,0.38
2023-02-04T13:52:08.114Z,0.50
2023-02-04T13:56:10.087Z,0.63
2023-02-04T14:00:12.311Z,0.38
2023-02-04T14:04:40.686Z,0.50
2023-02-04T14:08:43.261Z,0.20
2023-02-04T14:12:58.539Z,0.32
2023-02-04T14:17:00.148Z,0.50
2023-02-04T14:21:02.443Z,0.65
2023-02-04T14:25:10.299Z,0.20
2023-02-04T14:29:12.015Z,0.30
2023-02-04T14:33:15.270Z,0.38
2023-02-04T14:37:17.230Z,0.55
2023-02-04T14:41:21.113Z,0.40
2023-02-04T14:45:22.716Z,0.30
2023-02-04T14:49:24.213Z,0.32
2023-02-04T14:53:25.802Z,0.40
2023-02-04T14:57:39.197Z,0.50
2023-02-04T15:01:46.335Z,0.60
2023-02-04T15:05:54.098Z,0.20
2023-02-04T15:09:58.855Z,0.40
2023-02-04T15:14:00.469Z,0.32
2023-02-04T15:18:02.050Z,0.70
2023-02-04T15:22:03.961Z,0.43
2023-02-04T15:26:05.499Z,0.30
2023-02-04T15:30:07.829Z,0.30
2023-02-04T15:34:09.351Z,0.30
2023-02-04T15:38:11.692Z,1.33
2023-02-04T15:42:13.162Z,0.70
2023-02-04T15:46:14.804Z,0.43
2023-02-04T15:50:16.651Z,1.33
2023-02-04T15:54:18.186Z,0.77
2023-02-04T15:58:19.796Z,0.60
2023-02-04T16:02:21.238Z,0.50
2023-02-04T16:06:23.675Z,0.60
2023-02-04T16:10:25.324Z,0.50
2023-02-04T16:14:26.965Z,0.50
2023-02-04T16:18:28.396Z,0.43
2023-02-04T16:22:30.546Z,0.63
2023-02-04T16:26:32.301Z,0.30
2023-02-04T16:30:33.785Z,0.45
2023-02-04T16:34:35.304Z,0.73
2023-02-04T16:38:38.738Z,0.80
2023-02-04T16:42:40.203Z,1.00
2023-02-04T16:46:41.701Z,0.77
2023-02-04T16:50:43.500Z,1.05
2023-02-04T16:54:45.001Z,0.60
2023-02-04T16:58:47.030Z,0.43
2023-02-04T17:02:48.638Z,1.15
2023-02-04T17:06:51.117Z,2.38
2023-02-04T17:11:11.914Z,2.40
2023-02-04T17:15:13.832Z,3.55
2023-02-04T17:19:17.502Z,4.10
2023-02-04T17:23:19.174Z,4.40
2023-02-04T17:27:20.672Z,2.65
2023-02-04T17:31:22.982Z,2.47
2023-02-04T17:35:24.568Z,3.38
2023-02-04T17:39:26.158Z,2.47
2023-02-04T17:43:27.757Z,2.50
2023-02-04T17:47:29.177Z,1.00
2023-02-04T17:51:30.751Z,2.13
2023-02-04T17:55:34.546Z,2.72
2023-02-04T17:59:36.448Z,2.67
2023-02-04T18:03:38.437Z,2.67
2023-02-04T18:07:46.735Z,2.60
2023-02-04T18:11:48.301Z,2.47
2023-02-04T18:15:52.801Z,1.25
2023-02-04T18:19:54.249Z,2.13
2023-02-04T18:24:17.410Z,2.00
2023-02-04T18:28:21.522Z,3.58
2023-02-04T18:32:36.339Z,3.47
2023-02-04T18:36:37.887Z,2.58
2023-02-04T18:40:41.527Z,3.03
2023-02-04T18:44:43.122Z,4.82
2023-02-04T18:48:58.784Z,3.40
2023-02-04T18:53:15.256Z,3.38
2023-02-04T18:57:28.610Z,3.38
2023-02-04T19:01:35.319Z,6.15
2023-02-04T19:05:47.283Z,3.63
2023-02-04T19:09:48.756Z,4.32
2023-02-04T19:13:54.428Z,2.75
2023-02-04T19:17:59.115Z,2.58
2023-02-04T19:22:00.733Z,2.58
2023-02-04T19:26:02.334Z,2.97
2023-02-04T19:30:29.840Z,3.38
2023-02-04T19:34:34.262Z,3.10
2023-02-04T19:38:45.198Z,4.45
2023-02-04T19:42:46.671Z,3.55
2023-02-04T19:46:48.148Z,2.53
2023-02-04T19:50:53.258Z,1.88
2023-02-04T19:55:29.637Z,3.45
2023-02-04T19:59:36.921Z,3.60
2023-02-04T20:03:46.055Z,3.22
2023-02-04T20:07:47.525Z,3.22
2023-02-04T20:11:54.905Z,1.95
2023-02-04T20:15:59.632Z,2.45
2023-02-04T20:20:15.647Z,2.30
2023-02-04T20:24:18.128Z,1.70
2023-02-04T20:28:34.450Z,2.22
2023-02-04T20:32:40.367Z,1.67
2023-02-04T20:36:43.107Z,1.50
2023-02-04T20:41:00.269Z,2.88
2023-02-04T20:45:43.821Z,1.60
2023-02-04T20:49:55.200Z,1.10
2023-02-04T20:53:59.284Z,1.13
2023-02-04T20:58:14.161Z,1.25
2023-02-04T21:02:20.907Z,1.33
2023-02-04T21:06:28.256Z,2.00
2023-02-04T21:10:29.685Z,1.75
2023-02-04T21:14:31.154Z,2.83
2023-02-04T21:18:34.701Z,2.20
2023-02-04T21:22:38.063Z,1.95
2023-02-04T21:26:40.080Z,1.50
2023-02-04T21:30:42.343Z,1.35
2023-02-04T21:34:43.822Z,1.35
2023-02-04T21:38:47.099Z,0.93
2023-02-04T21:42:49.377Z,1.70
2023-02-04T21:46:50.798Z,1.15
2023-02-04T21:50:52.250Z,1.10
2023-02-04T21:54:53.694Z,0.95
2023-02-04T21:58:56.312Z,1.80
2023-02-04T22:02:58.054Z,2.67
2023-02-04T22:06:59.605Z,1.85
2023-02-04T22:11:01.171Z,1.40
2023-02-04T22:15:04.445Z,2.80
2023-02-04T22:19:06.750Z,2.92
2023-02-04T22:23:08.618Z,1.77
2023-02-04T22:27:10.130Z,2.03
2023-02-04T22:31:12.804Z,2.53
2023-02-04T22:35:14.873Z,3.40
2023-02-04T22:39:16.411Z,2.42
2023-02-04T22:43:18.039Z,1.42
2023-02-04T22:47:19.624Z,1.90
2023-02-04T22:51:21.485Z,1.73
2023-02-04T22:55:23.011Z,1.38
2023-02-04T22:59:24.547Z,0.88
2023-02-04T23:03:25.996Z,0.90
2023-02-04T23:07:27.440Z,0.88
2023-02-04T23:11:29.385Z,0.80
2023-02-04T23:15:31.248Z,1.02
2023-02-04T23:19:32.859Z,1.50
2023-02-04T23:23:34.479Z,0.98
2023-02-04T23:27:36.264Z,1.08
2023-02-04T23:31:37.723Z,0.63
2023-02-04T23:35:39.221Z,1.17
2023-02-04T23:39:40.689Z,1.08
2023-02-04T23:43:42.179Z,2.13
2023-02-04T23:47:44.683Z,1.67
2023-02-04T23:51:46.558Z,0.63
2023-02-04T23:55:50.042Z,0.70
2023-02-04T23:59:52.617Z,1.00
